createdAt,value
2022-12-26T00:00:08.014Z,9.90
2022-12-26T00:02:34.865Z,9.90
2022-12-26T00:05:01.841Z,9.90
2022-12-26T00:07:28.653Z,9.90
2022-12-26T00:09:55.372Z,9.90
2022-12-26T00:12:22.141Z,9.90
2022-12-26T00:14:49.007Z,9.90
2022-12-26T00:17:15.891Z,9.90
2022-12-26T00:19:43.349Z,9.90
2022-12-26T00:22:10.986Z,9.90
2022-12-26T00:24:37.756Z,9.90
2022-12-26T00:27:04.562Z,9.90
2022-12-26T00:29:31.450Z,10.00
2022-12-26T00:31:58.272Z,10.00
2022-12-26T00:34:25.132Z,10.00
2022-12-26T00:36:51.902Z,10.00
2022-12-26T00:39:18.669Z,10.00
2022-12-26T00:41:45.481Z,10.00
2022-12-26T00:44:12.228Z,10.00
2022-12-26T00:46:39.130Z,10.10
2022-12-26T00:49:06.038Z,10.20
2022-12-26T00:51:32.755Z,10.20
2022-12-26T00:53:59.521Z,10.30
2022-12-26T00:56:26.304Z,10.40
2022-12-26T00:58:53.040Z,10.30
2022-12-26T01:01:21.716Z,10.40
2022-12-26T01:03:49.134Z,10.40
2022-12-26T01:06:16.163Z,10.40
2022-12-26T01:08:43.252Z,10.40
2022-12-26T01:11:12.022Z,10.40
2022-12-26T01:13:38.862Z,10.40
2022-12-26T01:16:06.169Z,10.30
2022-12-26T01:18:33.502Z,10.40
2022-12-26T01:21:05.316Z,10.40
2022-12-26T01:23:32.086Z,10.40
2022-12-26T01:26:18.183Z,10.40
2022-12-26T01:28:45.846Z,10.40
2022-12-26T01:31:12.640Z,10.40
2022-12-26T01:33:39.398Z,10.50
2022-12-26T01:36:06.418Z,10.50
2022-12-26T01:38:33.391Z,10.50
2022-12-26T01:41:19.647Z,10.50
2022-12-26T01:43:56.434Z,10.60
2022-12-26T01:46:31.033Z,10.60
2022-12-26T01:49:00.934Z,10.60
2022-12-26T01:51:29.747Z,10.60
2022-12-26T01:54:40.460Z,10.70
2022-12-26T01:56:44.596Z,10.70
2022-12-26T01:59:20.345Z,10.80
2022-12-26T02:01:47.877Z,10.80
2022-12-26T02:04:37.363Z,10.80
2022-12-26T02:07:04.309Z,10.80
2022-12-26T02:09:31.394Z,10.70
2022-12-26T02:12:35.671Z,10.70
2022-12-26T02:15:09.460Z,10.70
2022-12-26T02:17:36.835Z,10.60
2022-12-26T02:20:19.450Z,10.60
2022-12-26T02:23:11.270Z,10.60
2022-12-26T02:26:14.420Z,10.60
2022-12-26T02:28:56.862Z,10.50
2022-12-26T02:31:28.235Z,10.50
2022-12-26T02:34:04.360Z,10.50
2022-12-26T02:36:41.488Z,10.50
2022-12-26T02:39:44.898Z,10.50
2022-12-26T02:42:17.849Z,10.60
2022-12-26T02:45:10.179Z,10.70
2022-12-26T02:47:52.873Z,10.70
2022-12-26T02:51:16.184Z,10.80
2022-12-26T02:54:20.217Z,10.90
2022-12-26T02:57:11.672Z,10.90
2022-12-26T02:59:59.945Z,10.90
2022-12-26T03:03:02.936Z,11.00
2022-12-26T03:05:54.099Z,11.00
2022-12-26T03:08:49.020Z,11.10
2022-12-26T03:11:34.253Z,11.10
2022-12-26T03:14:24.071Z,11.10
2022-12-26T03:17:18.787Z,11.20
2022-12-26T03:20:01.798Z,11.10
2022-12-26T03:22:37.621Z,11.10
2022-12-26T03:25:31.793Z,11.10
2022-12-26T03:27:58.570Z,11.00
2022-12-26T03:30:43.756Z,11.10
2022-12-26T03:33:30.574Z,11.10
2022-12-26T03:35:57.717Z,11.10
2022-12-26T03:38:51.060Z,11.20
2022-12-26T03:41:44.219Z,11.20
2022-12-26T03:44:54.119Z,11.20
2022-12-26T03:47:55.010Z,11.30
2022-12-26T03:50:49.293Z,11.20
2022-12-26T03:53:41.678Z,11.10
2022-12-26T03:56:32.447Z,10.80
2022-12-26T03:59:27.294Z,10.70
2022-12-26T04:02:13.118Z,10.60
2022-12-26T04:04:59.878Z,10.50
2022-12-26T04:07:56.498Z,10.50
2022-12-26T04:10:58.721Z,10.50
2022-12-26T04:13:49.092Z,10.50
2022-12-26T04:16:43.352Z,10.50
2022-12-26T04:19:26.253Z,10.50
2022-12-26T04:22:46.920Z,10.50
2022-12-26T04:25:50.587Z,10.30
2022-12-26T04:28:38.088Z,10.00
2022-12-26T04:31:31.481Z,9.70
2022-12-26T04:34:19.070Z,9.60
2022-12-26T04:37:14.382Z,9.50
2022-12-26T04:39:59.455Z,9.40
2022-12-26T04:42:44.815Z,9.40
2022-12-26T04:45:11.698Z,9.40
2022-12-26T04:47:38.511Z,9.40
2022-12-26T04:50:12.295Z,9.30
2022-12-26T04:53:00.790Z,9.40
2022-12-26T04:55:29.931Z,9.40
2022-12-26T04:57:57.039Z,9.40
2022-12-26T05:00:25.018Z,9.40
2022-12-26T05:03:16.282Z,9.40
2022-12-26T05:06:05.203Z,9.40
2022-12-26T05:09:15.702Z,9.40
2022-12-26T05:11:47.156Z,9.30
2022-12-26T05:14:13.970Z,9.30
2022-12-26T05:16:59.568Z,9.30
2022-12-26T05:19:45.085Z,9.30
2022-12-26T05:22:30.317Z,9.40
2022-12-26T05:25:15.464Z,9.40
2022-12-26T05:28:02.985Z,9.40
2022-12-26T05:30:29.883Z,9.40
2022-12-26T05:33:15.170Z,9.40
2022-12-26T05:35:42.016Z,9.40
2022-12-26T05:38:09.797Z,9.40
2022-12-26T05:40:36.687Z,9.40
2022-12-26T05:43:03.450Z,9.30
2022-12-26T05:45:30.258Z,9.10
2022-12-26T05:48:01.184Z,8.90
2022-12-26T05:50:28.368Z,8.70
2022-12-26T05:52:57.666Z,8.60
2022-12-26T05:55:24.611Z,8.40
2022-12-26T05:57:51.613Z,8.40
2022-12-26T06:00:18.516Z,8.30
2022-12-26T06:02:45.436Z,8.30
2022-12-26T06:05:12.394Z,8.30
2022-12-26T06:07:39.201Z,8.30
2022-12-26T06:10:06.539Z,8.30
2022-12-26T06:12:34.349Z,8.20
2022-12-26T06:15:01.404Z,8.20
2022-12-26T06:17:28.202Z,8.10
2022-12-26T06:19:54.994Z,8.10
2022-12-26T06:22:21.854Z,8.10
2022-12-26T06:24:48.699Z,8.00
2022-12-26T06:27:15.511Z,8.00
2022-12-26T06:29:42.250Z,8.00
2022-12-26T06:32:09.050Z,7.90
2022-12-26T06:34:35.878Z,7.90
2022-12-26T06:37:02.721Z,7.80
2022-12-26T06:39:29.504Z,7.90
2022-12-26T06:41:56.250Z,7.80
2022-12-26T06:44:23.027Z,7.80
2022-12-26T06:46:49.875Z,7.70
2022-12-26T06:49:16.748Z,7.70
2022-12-26T06:51:45.062Z,7.60
2022-12-26T06:54:11.870Z,7.60
2022-12-26T06:56:38.769Z,7.50
2022-12-26T06:59:06.068Z,7.40
2022-12-26T07:01:34.474Z,7.30
2022-12-26T07:04:01.413Z,7.20
2022-12-26T07:06:29.817Z,7.10
2022-12-26T07:08:58.552Z,7.00
2022-12-26T07:11:27.547Z,6.90
2022-12-26T07:13:54.723Z,6.90
2022-12-26T07:16:21.911Z,6.80
2022-12-26T07:18:48.832Z,6.70
2022-12-26T07:21:15.882Z,6.70
2022-12-26T07:23:42.744Z,6.60
2022-12-26T07:26:09.574Z,6.60
2022-12-26T07:28:36.373Z,6.50
2022-12-26T07:31:03.607Z,6.50
2022-12-26T07:33:30.405Z,6.50
2022-12-26T07:36:01.221Z,6.40
2022-12-26T07:38:28.090Z,6.40
2022-12-26T07:40:56.625Z,6.30
2022-12-26T07:43:23.775Z,6.30
2022-12-26T07:45:50.826Z,6.20
2022-12-26T07:48:17.768Z,6.20
2022-12-26T07:50:47.181Z,6.20
2022-12-26T07:53:14.831Z,6.10
2022-12-26T07:55:41.664Z,6.10
2022-12-26T07:58:08.438Z,6.10
2022-12-26T08:00:35.218Z,6.00
2022-12-26T08:03:07.326Z,6.00
2022-12-26T08:05:34.756Z,6.00
2022-12-26T08:08:01.501Z,5.90
2022-12-26T08:10:28.274Z,5.90
2022-12-26T08:12:55.043Z,5.90
2022-12-26T08:15:21.807Z,5.90
2022-12-26T08:17:48.654Z,5.80
2022-12-26T08:20:15.576Z,5.80
2022-12-26T08:22:42.402Z,5.80
2022-12-26T08:25:09.760Z,5.80
2022-12-26T08:27:36.511Z,5.80
2022-12-26T08:30:04.861Z,5.80
2022-12-26T08:32:31.897Z,5.80
2022-12-26T08:34:58.703Z,5.80
2022-12-26T08:37:25.535Z,5.80
2022-12-26T08:39:53.550Z,5.80
2022-12-26T08:42:21.087Z,5.80
2022-12-26T08:44:47.957Z,5.80
2022-12-26T08:47:14.885Z,5.80
2022-12-26T08:49:41.681Z,5.90
2022-12-26T08:52:08.465Z,6.00
2022-12-26T08:54:35.297Z,6.10
2022-12-26T08:57:02.112Z,6.20
2022-12-26T08:59:28.855Z,6.20
2022-12-26T09:01:55.697Z,6.30
2022-12-26T09:04:23.260Z,6.40
2022-12-26T09:06:50.067Z,6.40
2022-12-26T09:09:16.969Z,6.50
2022-12-26T09:11:43.920Z,6.50
2022-12-26T09:14:10.912Z,6.50
2022-12-26T09:16:49.700Z,6.50
2022-12-26T09:19:17.701Z,6.50
2022-12-26T09:21:44.663Z,6.60
2022-12-26T09:24:14.771Z,6.60
2022-12-26T09:26:41.785Z,6.60
2022-12-26T09:29:10.864Z,6.60
2022-12-26T09:31:37.736Z,6.60
2022-12-26T09:34:05.406Z,6.70
2022-12-26T09:36:35.241Z,6.70
2022-12-26T09:39:02.019Z,6.70
2022-12-26T09:42:09.673Z,6.70
2022-12-26T09:44:52.634Z,6.80
2022-12-26T09:47:56.491Z,6.90
2022-12-26T09:50:23.295Z,6.90
2022-12-26T09:53:12.166Z,7.00
2022-12-26T09:55:48.833Z,7.00
2022-12-26T09:58:46.984Z,7.10
2022-12-26T10:01:24.511Z,7.10
2022-12-26T10:03:58.575Z,7.20
2022-12-26T10:06:26.494Z,7.20
2022-12-26T10:09:12.021Z,7.30
2022-12-26T10:11:55.774Z,7.40
2022-12-26T10:15:01.000Z,7.40
2022-12-26T10:17:30.603Z,7.50
2022-12-26T10:20:03.222Z,7.60
2022-12-26T10:22:44.954Z,7.70
2022-12-26T10:25:33.759Z,7.80
2022-12-26T10:28:00.914Z,7.90
2022-12-26T10:30:34.544Z,8.00
2022-12-26T10:33:09.849Z,8.10
2022-12-26T10:35:39.515Z,8.20
2022-12-26T10:38:32.458Z,8.30
2022-12-26T10:41:03.849Z,8.30
2022-12-26T10:43:34.739Z,8.30
2022-12-26T10:46:29.712Z,8.40
2022-12-26T10:48:56.535Z,8.40
2022-12-26T10:51:23.939Z,8.50
2022-12-26T10:53:52.027Z,8.50
2022-12-26T10:56:18.852Z,8.60
2022-12-26T10:58:46.808Z,8.60
2022-12-26T11:01:47.691Z,8.60
2022-12-26T11:05:02.039Z,8.70
2022-12-26T11:07:12.076Z,8.80
2022-12-26T11:09:40.969Z,8.80
2022-12-26T11:12:21.495Z,8.80
2022-12-26T11:14:48.312Z,8.80
2022-12-26T11:17:32.542Z,8.80
2022-12-26T11:20:10.194Z,8.60
2022-12-26T11:22:37.139Z,8.50
2022-12-26T11:25:09.927Z,8.40
2022-12-26T11:27:37.858Z,8.40
2022-12-26T11:30:18.155Z,8.30
2022-12-26T11:32:50.826Z,8.30
2022-12-26T11:35:26.748Z,8.30
2022-12-26T11:37:57.574Z,8.30
2022-12-26T11:40:29.919Z,8.30
2022-12-26T11:42:57.880Z,8.30
2022-12-26T11:45:31.667Z,8.40
2022-12-26T11:48:01.051Z,8.40
2022-12-26T11:50:29.280Z,8.50
2022-12-26T11:52:56.017Z,8.60
2022-12-26T11:55:25.035Z,8.60
2022-12-26T11:58:06.198Z,8.70
2022-12-26T12:00:44.355Z,8.70
2022-12-26T12:03:23.034Z,8.70
2022-12-26T12:06:04.780Z,8.80
2022-12-26T12:08:46.537Z,9.10
2022-12-26T12:11:19.009Z,9.50
2022-12-26T12:13:49.515Z,9.90
2022-12-26T12:16:54.184Z,10.30
2022-12-26T12:19:27.415Z,10.60
2022-12-26T12:22:31.534Z,10.90
2022-12-26T12:25:28.466Z,11.10
2022-12-26T12:28:01.316Z,11.20
2022-12-26T12:30:57.169Z,11.40
2022-12-26T12:33:50.480Z,11.50
2022-12-26T12:36:22.060Z,11.60
2022-12-26T12:38:57.723Z,11.70
2022-12-26T12:41:42.515Z,11.90
2022-12-26T12:44:09.311Z,12.10
2022-12-26T12:47:06.821Z,12.20
2022-12-26T12:49:55.372Z,12.40
2022-12-26T12:52:49.558Z,12.60
2022-12-26T12:55:16.337Z,12.70
2022-12-26T12:57:56.666Z,12.50
2022-12-26T13:00:26.495Z,12.20
2022-12-26T13:03:27.911Z,12.10
2022-12-26T13:06:14.014Z,12.00
2022-12-26T13:08:43.232Z,12.20
2022-12-26T13:11:34.867Z,12.50
2022-12-26T13:14:03.895Z,12.60
2022-12-26T13:16:33.583Z,12.70
2022-12-26T13:19:05.698Z,12.70
2022-12-26T13:21:37.467Z,12.80
2022-12-26T13:24:24.171Z,12.90
2022-12-26T13:26:59.179Z,13.20
2022-12-26T13:29:32.208Z,13.30
2022-12-26T13:32:00.538Z,13.40
2022-12-26T13:34:27.399Z,13.50
2022-12-26T13:36:56.420Z,13.70
2022-12-26T13:39:23.245Z,13.70
2022-12-26T13:42:28.227Z,13.70
2022-12-26T13:44:55.018Z,13.70
2022-12-26T13:47:38.347Z,13.70
2022-12-26T13:50:46.072Z,13.70
2022-12-26T13:53:24.431Z,13.60
2022-12-26T13:55:52.013Z,13.50
2022-12-26T13:58:43.898Z,13.40
2022-12-26T14:01:52.277Z,13.20
2022-12-26T14:04:34.948Z,13.00
2022-12-26T14:07:23.346Z,13.00
2022-12-26T14:09:56.622Z,13.00
2022-12-26T14:12:48.679Z,12.90
2022-12-26T14:15:42.840Z,12.90
2022-12-26T14:18:22.605Z,12.70
2022-12-26T14:21:27.070Z,12.60
2022-12-26T14:23:56.888Z,12.40
2022-12-26T14:26:35.546Z,12.00
2022-12-26T14:29:23.582Z,11.60
2022-12-26T14:32:16.948Z,11.00
2022-12-26T14:35:14.461Z,10.60
2022-12-26T14:38:02.270Z,10.20
2022-12-26T14:40:35.498Z,10.00
2022-12-26T14:43:10.986Z,9.80
2022-12-26T14:45:42.764Z,9.60
2022-12-26T14:48:29.885Z,9.50
2022-12-26T14:51:02.884Z,9.40
2022-12-26T14:53:33.999Z,9.30
2022-12-26T14:56:15.815Z,9.20
2022-12-26T14:58:47.065Z,9.10
2022-12-26T15:01:15.469Z,9.00
2022-12-26T15:04:03.959Z,8.90
2022-12-26T15:06:45.841Z,8.80
2022-12-26T15:09:18.299Z,8.70
2022-12-26T15:12:26.976Z,8.70
2022-12-26T15:15:17.948Z,8.60
2022-12-26T15:17:53.635Z,8.50
2022-12-26T15:20:46.580Z,8.40
2022-12-26T15:23:47.781Z,8.30
2022-12-26T15:26:39.313Z,8.30
2022-12-26T15:29:08.833Z,8.20
2022-12-26T15:31:43.917Z,8.20
2022-12-26T15:34:47.661Z,8.10
2022-12-26T15:37:17.549Z,8.00
2022-12-26T15:40:01.100Z,8.00
2022-12-26T15:42:46.049Z,7.90
2022-12-26T15:45:33.787Z,7.90
2022-12-26T15:48:38.264Z,7.90
2022-12-26T15:51:10.505Z,7.80
2022-12-26T15:53:58.840Z,7.80
2022-12-26T15:56:34.266Z,7.80
2022-12-26T15:59:32.498Z,7.80
2022-12-26T16:01:59.615Z,7.80
2022-12-26T16:04:34.987Z,7.70
2022-12-26T16:07:09.115Z,7.70
2022-12-26T16:09:41.895Z,7.60
2022-12-26T16:12:31.252Z,7.50
2022-12-26T16:15:04.779Z,7.40
2022-12-26T16:17:31.740Z,7.40
2022-12-26T16:19:58.581Z,7.30
2022-12-26T16:22:49.381Z,7.30
2022-12-26T16:25:24.040Z,7.30
2022-12-26T16:27:55.622Z,7.20
2022-12-26T16:30:24.188Z,7.10
2022-12-26T16:32:51.519Z,7.10
2022-12-26T16:35:25.044Z,7.00
2022-12-26T16:37:52.329Z,7.00
2022-12-26T16:40:22.710Z,7.00
2022-12-26T16:43:06.921Z,7.00
2022-12-26T16:45:35.349Z,6.90
2022-12-26T16:48:04.403Z,6.90
2022-12-26T16:50:32.915Z,6.80
2022-12-26T16:53:25.831Z,6.80
2022-12-26T16:55:57.083Z,6.80
2022-12-26T16:58:31.197Z,6.80
2022-12-26T17:01:13.228Z,6.80
2022-12-26T17:04:00.660Z,6.90
2022-12-26T17:06:38.406Z,6.90
2022-12-26T17:09:17.147Z,6.90
2022-12-26T17:11:59.348Z,6.90
2022-12-26T17:14:33.474Z,6.90
2022-12-26T17:17:02.632Z,6.80
2022-12-26T17:19:31.761Z,6.90
2022-12-26T17:22:17.900Z,6.80
2022-12-26T17:24:45.644Z,6.80
2022-12-26T17:27:25.764Z,6.70
2022-12-26T17:29:57.281Z,6.70
2022-12-26T17:32:27.278Z,6.70
2022-12-26T17:34:54.168Z,6.70
2022-12-26T17:37:24.673Z,6.70
2022-12-26T17:40:14.485Z,6.70
2022-12-26T17:42:56.342Z,6.60
2022-12-26T17:45:24.913Z,6.60
2022-12-26T17:47:52.916Z,6.60
2022-12-26T17:50:20.309Z,6.60
2022-12-26T17:52:47.196Z,6.50
2022-12-26T17:55:21.220Z,6.50
2022-12-26T17:57:48.620Z,6.40
2022-12-26T18:00:24.103Z,6.40
2022-12-26T18:02:51.030Z,6.30
2022-12-26T18:05:18.487Z,6.30
2022-12-26T18:07:45.444Z,6.20
2022-12-26T18:10:23.503Z,6.20
2022-12-26T18:12:50.699Z,6.20
2022-12-26T18:15:17.754Z,6.20
2022-12-26T18:17:45.128Z,6.20
2022-12-26T18:20:25.776Z,6.10
2022-12-26T18:22:52.867Z,6.10
2022-12-26T18:25:22.804Z,6.10
2022-12-26T18:27:49.759Z,6.10
2022-12-26T18:30:24.329Z,6.10
2022-12-26T18:32:52.033Z,6.10
2022-12-26T18:35:19.014Z,6.10
2022-12-26T18:37:51.395Z,6.10
2022-12-26T18:40:28.999Z,6.10
2022-12-26T18:42:55.813Z,6.10
2022-12-26T18:45:22.758Z,6.10
2022-12-26T18:47:49.576Z,6.10
2022-12-26T18:50:16.772Z,6.10
2022-12-26T18:52:46.475Z,6.10
2022-12-26T18:55:15.459Z,6.10
2022-12-26T18:57:42.333Z,6.10
2022-12-26T19:00:11.454Z,6.10
2022-12-26T19:02:38.235Z,6.10
2022-12-26T19:05:05.289Z,6.10
2022-12-26T19:07:32.073Z,6.10
2022-12-26T19:10:00.943Z,6.10
2022-12-26T19:12:27.865Z,6.10
2022-12-26T19:14:54.672Z,6.10
2022-12-26T19:17:21.456Z,6.10
2022-12-26T19:19:48.259Z,6.10
2022-12-26T19:22:15.207Z,6.10
2022-12-26T19:24:41.990Z,6.10
2022-12-26T19:27:08.843Z,6.10
2022-12-26T19:29:35.672Z,6.10
2022-12-26T19:32:02.538Z,6.10
2022-12-26T19:34:29.409Z,6.10
2022-12-26T19:36:56.149Z,6.10
2022-12-26T19:39:23.733Z,6.10
2022-12-26T19:41:50.517Z,6.10
2022-12-26T19:44:17.301Z,6.10
2022-12-26T19:46:44.155Z,6.10
2022-12-26T19:49:10.993Z,6.10
2022-12-26T19:51:38.015Z,6.10
2022-12-26T19:54:06.801Z,6.10
2022-12-26T19:56:33.985Z,6.10
2022-12-26T19:59:00.960Z,6.10
2022-12-26T20:01:31.260Z,6.10
2022-12-26T20:03:59.159Z,6.10
2022-12-26T20:06:26.855Z,6.00
2022-12-26T20:08:56.660Z,6.00
2022-12-26T20:11:31.250Z,6.10
2022-12-26T20:13:59.019Z,6.00
2022-12-26T20:19:12.969Z,6.10
2022-12-26T20:21:39.870Z,6.10
2022-12-26T20:24:06.797Z,6.10
2022-12-26T20:26:33.623Z,6.20
2022-12-26T20:29:01.772Z,6.20
2022-12-26T20:31:29.084Z,6.30
2022-12-26T20:33:57.659Z,6.40
2022-12-26T20:36:32.107Z,6.50
2022-12-26T20:39:00.152Z,6.60
2022-12-26T20:41:27.258Z,6.60
2022-12-26T20:43:54.877Z,6.60
2022-12-26T20:46:23.410Z,6.60
2022-12-26T20:48:50.423Z,6.60
2022-12-26T20:51:23.172Z,6.50
2022-12-26T20:53:50.816Z,6.50
2022-12-26T20:56:17.610Z,6.50
2022-12-26T20:58:44.473Z,6.40
2022-12-26T21:01:14.745Z,6.40
2022-12-26T21:03:41.637Z,6.40
2022-12-26T21:06:19.984Z,6.40
2022-12-26T21:08:48.134Z,6.40
2022-12-26T21:11:15.989Z,6.30
2022-12-26T21:13:43.469Z,6.30
2022-12-26T21:16:11.130Z,6.30
2022-12-26T21:18:37.984Z,6.30
2022-12-26T21:21:13.378Z,6.30
2022-12-26T21:23:40.348Z,6.20
2022-12-26T21:26:07.230Z,6.20
2022-12-26T21:28:34.258Z,6.20
2022-12-26T21:31:01.534Z,6.20
2022-12-26T21:33:30.007Z,6.20
2022-12-26T21:35:57.030Z,6.10
2022-12-26T21:38:24.892Z,6.10
2022-12-26T21:40:51.741Z,6.10
2022-12-26T21:43:18.603Z,6.10
2022-12-26T21:45:45.421Z,6.00
2022-12-26T21:48:12.263Z,6.00
2022-12-26T21:50:41.611Z,6.00
2022-12-26T21:53:08.433Z,6.00
2022-12-26T21:55:37.737Z,6.00
2022-12-26T21:58:05.717Z,6.00
2022-12-26T22:00:33.592Z,6.00
2022-12-26T22:03:19.171Z,6.00
2022-12-26T22:05:46.494Z,6.00
2022-12-26T22:08:13.348Z,5.90
2022-12-26T22:11:01.617Z,5.90
2022-12-26T22:13:28.580Z,5.90
2022-12-26T22:16:05.669Z,5.90
2022-12-26T22:18:46.263Z,5.90
2022-12-26T22:21:18.824Z,5.80
2022-12-26T22:23:45.767Z,5.80
2022-12-26T22:26:14.225Z,5.80
2022-12-26T22:28:41.634Z,5.80
2022-12-26T22:31:08.586Z,5.70
2022-12-26T22:33:35.503Z,5.80
2022-12-26T22:36:09.063Z,5.70
2022-12-26T22:38:36.568Z,5.70
2022-12-26T22:41:03.612Z,5.70
2022-12-26T22:43:30.432Z,5.70
2022-12-26T22:45:57.389Z,5.70
2022-12-26T22:48:24.629Z,5.70
2022-12-26T22:50:53.514Z,5.70
2022-12-26T22:53:23.102Z,5.70
2022-12-26T22:55:51.718Z,5.60
2022-12-26T22:58:18.786Z,5.60
2022-12-26T23:00:45.839Z,5.60
2022-12-26T23:03:13.150Z,5.60
2022-12-26T23:05:40.253Z,5.60
2022-12-26T23:08:07.763Z,5.60
2022-12-26T23:10:35.062Z,5.60
2022-12-26T23:13:02.174Z,5.60
2022-12-26T23:15:39.149Z,5.60
2022-12-26T23:18:32.582Z,5.50
2022-12-26T23:21:21.519Z,5.50
2022-12-26T23:23:48.659Z,5.50
2022-12-26T23:26:15.495Z,5.60
2022-12-26T23:29:00.852Z,5.50
2022-12-26T23:31:27.669Z,5.50
2022-12-26T23:33:54.460Z,5.50
2022-12-26T23:36:21.205Z,5.50
2022-12-26T23:38:48.110Z,5.60
2022-12-26T23:41:15.021Z,5.60
2022-12-26T23:43:41.798Z,5.60
2022-12-26T23:46:10.040Z,5.60
2022-12-26T23:48:37.004Z,5.60
2022-12-26T23:51:04.862Z,5.60
2022-12-26T23:53:31.735Z,5.60
2022-12-26T23:55:58.645Z,5.60
2022-12-26T23:58:25.565Z,5.60
